Sonora, Texas
Current Conditions -  °F | °C
As of 6:55 PM on Wednesday 17 Dec 2014 (Local Time) from KSOA Reporting Station
Haze Haze  
Wind Chill: 54°   Ceiling: 600
Heat Index: 54°   Visibility: 3mi
Dew Point: 52°   Wind: 0mph
Humidity: 94%   Direction: NA
Pressure: 30.11"   Gusts: NA
Location:  30.57°N, 100.64°W
Report Text: KSOA 180055Z AUTO 00000KT 3SM BR FEW001 BKN006 12/11 A3011 RMK AO2
Loading
Personal Weather Stations






























Interactive Weather Map New forecast layout! Learn more

10-Day Weather Forecast

Advertisements
Track Severe Weather on mobile